Time;durP1;ratioP1;P1;durP2;ratioP2;P2;SDS_P1;SDS_P2;PMS_P1;PMS_P2;Temp;Humidity;BMP_temperature;BMP_pressure;BME280_temperature;BME280_humidity;BME280_pressure;Samples;Min_cycle;Max_cycle;Signal;HPM_P1;HPM_P2
2022/10/08 00:00:52;;;;;;;23.42;12.30;;;19.30;95.40;;;19.19;66.35;99174.75;5075727;28;20088;-74
2022/10/08 00:03:34;;;;;;;26.63;13.18;;;19.30;95.30;;;19.19;66.41;99179.44;5091035;28;20460;-74
2022/10/08 00:06:15;;;;;;;28.65;13.25;;;19.30;95.40;;;19.24;66.83;99174.59;5077748;28;20043;-74
2022/10/08 00:08:47;;;;;;;29.98;14.38;;;19.20;95.60;;;19.22;67.43;99167.78;5076224;28;20196;-74
2022/10/08 00:11:23;;;;;;;28.13;13.50;;;19.20;95.70;;;19.20;67.32;99165.34;5102296;28;20040;-74
2022/10/08 00:13:49;;;;;;;22.27;12.13;;;19.20;95.60;;;19.15;66.41;99162.75;5084299;28;20046;-75
2022/10/08 00:16:20;;;;;;;20.65;13.32;;;19.20;95.40;;;19.16;66.38;99161.66;5106250;28;20811;-75
2022/10/08 00:18:48;;;;;;;30.00;14.18;;;19.20;95.40;;;19.20;66.30;99153.56;5107873;28;20126;-75
2022/10/08 00:21:20;;;;;;;24.67;12.80;;;19.20;95.40;;;19.18;66.79;99159.38;5087400;28;20050;-75
2022/10/08 00:23:48;;;;;;;27.83;12.82;;;19.20;95.50;;;19.19;67.32;99158.25;5072830;28;20083;-75
2022/10/08 00:26:15;;;;;;;24.38;12.77;;;19.20;95.60;;;19.20;67.30;99154.34;5067701;28;20098;-75
2022/10/08 00:28:44;;;;;;;22.90;12.77;;;19.20;95.60;;;19.21;66.62;99150.50;5086915;28;20085;-75
2022/10/08 00:31:16;;;;;;;26.83;13.43;;;19.20;95.40;;;19.17;66.38;99146.75;5069819;28;20040;-75
2022/10/08 00:33:43;;;;;;;23.98;12.05;;;19.20;95.30;;;19.17;66.19;99145.97;5100340;28;20055;-75
2022/10/08 00:36:10;;;;;;;24.38;13.10;;;19.20;95.30;;;19.16;66.41;99147.91;5097384;28;20482;-75
2022/10/08 00:38:37;;;;;;;24.73;12.90;;;19.20;95.40;;;19.17;67.01;99146.75;5071645;28;20032;-75
2022/10/08 00:41:04;;;;;;;22.50;12.15;;;19.20;95.60;;;19.19;67.19;99146.44;5085023;28;20043;-75
2022/10/08 00:43:48;;;;;;;26.45;12.40;;;19.20;96.00;;;19.16;66.96;99136.06;5092707;28;20047;-75
2022/10/08 00:46:39;;;;;;;25.17;13.48;;;19.20;95.50;;;19.15;66.33;99139.97;5088231;28;20040;-75
2022/10/08 00:49:11;;;;;;;22.73;12.00;;;19.20;95.40;;;19.15;66.25;99140.75;5074958;28;20715;-75
2022/10/08 00:51:48;;;;;;;22.55;13.30;;;19.20;95.40;;;19.09;66.31;99128.31;5103217;28;20166;-75
2022/10/08 00:54:14;;;;;;;26.58;13.70;;;19.20;95.30;;;19.13;67.21;99136.72;5085217;28;20150;-75
2022/10/08 00:56:40;;;;;;;28.08;14.00;;;19.20;95.60;;;19.13;67.33;99131.22;5085265;28;20042;-75
2022/10/08 00:59:07;;;;;;;24.88;12.65;;;19.10;95.60;;;19.11;67.19;99123.31;5085306;28;20051;-75
2022/10/08 01:01:34;;;;;;;25.80;11.40;;;19.10;95.60;;;19.10;66.52;99118.94;5085168;28;20395;-75
2022/10/08 01:04:05;;;;;;;24.75;11.90;;;19.10;95.40;;;19.09;66.58;99118.13;5100246;28;20046;-75
2022/10/08 01:06:52;;;;;;;23.30;11.93;;;19.10;95.30;;;19.11;66.38;99123.31;5100388;28;20047;-75
2022/10/08 01:09:32;;;;;;;22.02;10.57;;;19.10;95.40;;;19.15;66.52;99123.47;5105741;28;20035;-75
2022/10/08 01:12:33;;;;;;;26.38;14.27;;;19.10;95.40;;;19.08;67.16;99113.78;5092213;28;20048;-75
2022/10/08 01:15:16;;;;;;;24.80;12.40;;;19.10;95.60;;;19.13;67.25;99110.03;5089047;28;20048;-75
2022/10/08 01:17:58;;;;;;;20.15;12.35;;;19.10;95.60;;;19.12;66.44;99102.13;5071146;28;20096;-75
2022/10/08 01:20:33;;;;;;;22.17;11.88;;;19.10;95.40;;;19.10;66.28;99102.44;5100541;28;20044;-75
2022/10/08 01:23:33;;;;;;;19.10;11.50;;;19.10;95.40;;;19.11;66.16;99100.47;5104378;28;20058;-75
2022/10/08 01:26:28;;;;;;;22.48;12.27;;;19.10;95.30;;;19.09;66.94;99098.06;5099109;28;20089;-75
2022/10/08 01:29:05;;;;;;;23.77;12.32;;;19.10;95.60;;;19.10;67.05;99099.69;5100275;28;20047;-75
2022/10/08 01:31:42;;;;;;;21.85;12.45;;;19.10;95.60;;;19.06;67.17;99095.97;5091957;28;20110;-75
2022/10/08 01:34:27;;;;;;;21.83;12.55;;;19.00;95.60;;;19.07;66.55;99100.34;5088986;28;20563;-75
2022/10/08 01:36:53;;;;;;;20.83;12.43;;;19.00;95.40;;;19.03;66.66;99094.69;5085793;28;20032;-75
2022/10/08 01:39:21;;;;;;;19.85;11.13;;;19.10;95.40;;;19.03;66.20;99093.84;5069656;28;20448;-75
2022/10/08 01:41:57;;;;;;;21.10;12.02;;;19.00;95.30;;;19.07;66.86;99094.84;5052854;28;20044;-75
2022/10/08 01:44:27;;;;;;;20.65;12.18;;;19.10;95.50;;;19.05;67.55;99095.13;5075780;28;20093;-75
2022/10/08 01:46:58;;;;;;;29.00;12.35;;;19.10;95.60;;;19.04;67.64;99095.47;5085453;28;20506;-75
2022/10/08 01:49:27;;;;;;;20.27;11.27;;;19.10;95.70;;;19.02;66.80;99089.50;5067341;28;20036;-75
2022/10/08 01:51:57;;;;;;;18.63;11.43;;;19.10;95.50;;;19.04;66.30;99092.72;5070543;28;20474;-75
2022/10/08 01:54:24;;;;;;;19.08;11.80;;;19.10;95.40;;;19.06;66.21;99093.22;5075730;28;20123;-75
2022/10/08 01:56:50;;;;;;;18.73;10.60;;;19.10;95.30;;;19.06;66.19;99088.53;5081476;28;20040;-74
2022/10/08 01:59:31;;;;;;;23.80;11.93;;;19.00;95.30;;;19.04;67.08;99090.78;5057981;28;20051;-74
2022/10/08 02:02:24;;;;;;;21.67;11.07;;;19.00;95.60;;;19.02;67.49;99089.50;5074362;28;20047;-74
2022/10/08 02:04:52;;;;;;;21.67;12.07;;;19.00;95.60;;;19.01;66.93;99087.88;5086974;28;20441;-74
2022/10/08 02:07:29;;;;;;;25.45;11.95;;;19.00;95.40;;;19.03;66.44;99086.44;5066617;28;20475;-75
2022/10/08 02:10:13;;;;;;;22.88;11.38;;;19.00;95.40;;;19.04;66.19;99087.25;5076830;28;20069;-74
2022/10/08 02:12:39;;;;;;;17.50;9.98;;;19.00;95.30;;;19.01;66.24;99088.69;5105716;28;20567;-74
2022/10/08 02:15:08;;;;;;;20.63;11.88;;;19.00;95.30;;;19.02;67.05;99086.75;5067700;28;20114;-75
2022/10/08 02:18:05;;;;;;;21.65;12.43;;;19.00;95.50;;;19.01;67.29;99085.13;5088405;28;20811;-74
2022/10/08 02:20:55;;;;;;;20.88;11.15;;;19.00;95.50;;;18.99;66.77;99081.91;5086356;28;20115;-74
2022/10/08 02:23:25;;;;;;;25.00;13.00;;;19.00;95.40;;;19.00;66.58;99078.00;5072809;28;20047;-74
2022/10/08 02:26:08;;;;;;;18.08;10.43;;;19.00;95.40;;;18.98;66.42;99089.34;5096628;28;20123;-75
2022/10/08 02:29:06;;;;;;;17.85;11.95;;;19.00;95.30;;;19.01;66.33;99087.88;5075752;28;20058;-75
2022/10/08 02:31:53;;;;;;;24.23;11.48;;;19.00;95.30;;;18.98;67.06;99081.09;5100738;28;21030;-74
2022/10/08 02:34:37;;;;;;;17.50;11.00;;;19.00;95.60;;;19.00;67.37;99078.00;5100015;28;20061;-74
2022/10/08 02:37:15;;;;;;;20.65;11.00;;;19.00;95.60;;;18.98;66.68;99080.25;5058758;28;20126;-74
2022/10/08 02:39:46;;;;;;;22.17;13.10;;;19.00;95.40;;;18.97;66.69;99073.16;5056249;28;20044;-74
2022/10/08 02:42:15;;;;;;;20.83;10.73;;;18.90;95.30;;;18.98;66.22;99074.75;5073313;28;20587;-74
2022/10/08 02:45:34;;;;;;;16.02;9.60;;;19.00;95.30;;;18.96;66.14;99077.84;5070381;28;20054;-75
2022/10/08 02:48:05;;;;;;;18.23;11.10;;;19.00;95.30;;;18.96;66.99;99074.31;5092847;28;20058;-74
2022/10/08 02:50:33;;;;;;;22.70;11.15;;;19.00;95.50;;;18.93;67.49;99083.16;5072304;28;20051;-74
2022/10/08 02:52:59;;;;;;;20.27;10.60;;;19.00;95.60;;;18.96;66.96;99080.59;5073710;28;20051;-74
2022/10/08 02:55:56;;;;;;;19.00;10.70;;;19.00;95.50;;;18.96;66.19;99074.31;5067054;28;20039;-74
2022/10/08 02:58:22;;;;;;;21.30;11.77;;;19.00;95.40;;;18.95;66.03;99078.16;5088486;28;20043;-74
2022/10/08 03:00:55;;;;;;;17.88;9.73;;;18.90;95.20;;;18.96;66.12;99083.34;5071987;28;20081;-74
2022/10/08 03:03:28;;;;;;;16.65;11.70;;;19.00;95.30;;;18.91;66.98;99075.25;5072250;28;20503;-74
2022/10/08 03:05:55;;;;;;;23.20;10.98;;;18.90;95.40;;;18.97;67.02;99079.47;5083962;28;20535;-74
2022/10/08 03:08:22;;;;;;;17.42;10.27;;;18.90;95.60;;;18.93;67.14;99084.00;5072946;28;20503;-74
2022/10/08 03:10:48;;;;;;;17.17;10.68;;;18.90;95.60;;;18.96;66.54;99082.53;5098052;28;20040;-74
2022/10/08 03:13:14;;;;;;;16.48;10.45;;;18.90;95.50;;;18.92;66.09;99081.56;5066244;28;20413;-74
2022/10/08 03:15:40;;;;;;;17.20;10.57;;;18.90;95.40;;;18.91;66.31;99083.50;5085032;28;20031;-74
2022/10/08 03:18:07;;;;;;;14.20;9.65;;;18.90;95.40;;;18.92;66.22;99082.38;5086993;28;20040;-74
2022/10/08 03:20:40;;;;;;;21.90;11.70;;;18.90;95.30;;;18.94;67.16;99084.81;5069495;28;20043;-74
2022/10/08 03:23:06;;;;;;;18.80;10.25;;;18.90;95.50;;;18.93;66.99;99078.50;5073725;28;20058;-74
2022/10/08 03:25:32;;;;;;;15.23;9.85;;;18.90;95.60;;;18.89;66.85;99071.22;5080866;28;20067;-74
2022/10/08 03:27:58;;;;;;;18.10;11.75;;;18.90;95.50;;;18.91;66.11;99074.47;5096795;28;20877;-74
2022/10/08 03:30:24;;;;;;;14.40;9.07;;;18.90;95.40;;;18.89;66.35;99073.97;5099708;28;20160;-74
2022/10/08 03:32:50;;;;;;;20.77;10.27;;;18.90;95.30;;;18.89;65.86;99068.47;5097618;28;20036;-74
2022/10/08 03:35:16;;;;;;;18.58;10.18;;;18.80;95.20;;;18.87;67.07;99066.84;5097691;28;20497;-75
2022/10/08 03:37:42;;;;;;;16.20;10.18;;;18.90;95.50;;;18.86;67.23;99072.66;5100355;28;20044;-74
2022/10/08 03:40:09;;;;;;;21.58;11.20;;;18.90;95.60;;;18.87;67.44;99068.78;5103411;28;20537;-74
2022/10/08 03:42:35;;;;;;;18.02;10.85;;;18.80;95.90;;;18.87;66.36;99072.34;5103062;28;20745;-74
2022/10/08 03:45:01;;;;;;;15.13;10.05;;;18.90;95.40;;;18.86;66.31;99070.72;5098957;28;20031;-74
2022/10/08 03:47:27;;;;;;;22.65;10.15;;;18.80;95.30;;;18.87;66.38;99069.59;5098674;28;20036;-74
2022/10/08 03:49:53;;;;;;;19.23;10.63;;;18.90;95.30;;;18.85;66.22;99071.03;5098930;28;20114;-74
2022/10/08 03:52:19;;;;;;;17.52;9.27;;;18.80;95.30;;;18.79;66.70;99070.38;5087942;28;20039;-74
2022/10/08 03:54:46;;;;;;;19.15;9.85;;;18.80;95.40;;;18.83;65.58;99063.13;5088590;28;20565;-74
2022/10/08 03:57:12;;;;;;;16.00;8.15;;;18.80;95.10;;;18.84;65.34;99064.72;5089051;28;20099;-75
2022/10/08 03:59:38;;;;;;;13.43;9.48;;;18.80;95.00;;;18.88;64.71;99067.66;5087371;28;20032;-74
2022/10/08 04:02:04;;;;;;;15.77;9.43;;;18.90;95.00;;;18.88;64.63;99062.16;5098303;28;20442;-75
2022/10/08 04:04:30;;;;;;;12.95;9.45;;;18.90;94.90;;;18.82;66.11;99060.69;5070239;28;20760;-75
2022/10/08 04:06:56;;;;;;;13.75;8.77;;;18.90;95.20;;;18.84;66.17;99063.94;5094452;28;20048;-75
2022/10/08 04:09:22;;;;;;;14.27;8.10;;;18.80;95.30;;;18.86;65.58;99062.47;5098928;28;20048;-74
2022/10/08 04:11:48;;;;;;;15.63;9.00;;;18.80;95.10;;;18.86;64.75;99062.47;5099511;28;20119;-74
2022/10/08 04:14:14;;;;;;;11.80;8.40;;;18.80;94.80;;;18.85;64.39;99058.13;5099649;28;20040;-74
2022/10/08 04:16:40;;;;;;;11.25;7.65;;;18.80;94.70;;;18.78;64.31;99060.53;5087036;28;20046;-75
2022/10/08 04:19:06;;;;;;;12.88;7.88;;;18.80;94.50;;;18.81;64.54;99057.13;5098797;28;20655;-75
2022/10/08 04:21:33;;;;;;;11.75;8.13;;;18.80;94.80;;;18.83;65.60;99056.84;5082660;28;20040;-75
2022/10/08 04:23:59;;;;;;;13.25;9.55;;;18.80;95.10;;;18.83;65.58;99057.63;5100510;28;20043;-75
2022/10/08 04:26:25;;;;;;;13.10;8.80;;;18.80;95.20;;;18.81;65.14;99053.59;5100530;28;20049;-75
2022/10/08 04:28:51;;;;;;;13.10;8.45;;;18.80;95.00;;;18.78;64.32;99060.53;5080365;28;20051;-75
2022/10/08 04:31:20;;;;;;;13.10;8.60;;;18.80;94.60;;;18.79;64.16;99062.16;5067682;28;20035;-74
2022/10/08 04:33:46;;;;;;;12.93;7.85;;;18.80;94.50;;;18.80;63.47;99061.03;5099638;28;20039;-74
2022/10/08 04:36:14;;;;;;;13.85;8.90;;;18.80;94.60;;;18.75;65.11;99066.69;5103341;28;20044;-74
2022/10/08 04:38:44;;;;;;;12.50;8.25;;;18.80;94.90;;;18.77;65.58;99066.34;5083609;28;20086;-74
2022/10/08 04:41:15;;;;;;;11.50;8.43;;;18.80;95.10;;;18.77;65.52;99063.59;5099953;28;20535;-74
2022/10/08 04:43:42;;;;;;;13.57;8.57;;;18.80;95.10;;;18.77;64.29;99064.41;5099057;28;20061;-74
2022/10/08 04:46:09;;;;;;;11.10;8.27;;;18.70;94.60;;;18.75;63.37;99055.69;5104992;28;20040;-74
2022/10/08 04:48:37;;;;;;;11.00;7.47;;;18.80;94.50;;;18.70;63.25;99063.22;5084761;28;20067;-74
2022/10/08 04:51:05;;;;;;;10.88;8.63;;;18.80;94.40;;;18.74;63.65;99059.53;5101409;28;20431;-74
2022/10/08 04:53:31;;;;;;;15.13;8.93;;;18.80;94.60;;;18.76;64.86;99060.03;5103728;28;20126;-74
2022/10/08 04:56:11;;;;;;;11.15;8.30;;;18.70;94.90;;;18.77;64.83;99056.16;5103308;28;20036;-74
2022/10/08 04:58:37;;;;;;;10.07;7.82;;;18.70;95.30;;;18.77;64.22;99049.84;5106024;28;20043;-74
2022/10/08 05:01:04;;;;;;;9.93;7.57;;;18.80;94.90;;;18.77;63.71;99053.41;5100779;28;20556;-75
2022/10/08 05:03:34;;;;;;;15.10;9.10;;;18.70;94.50;;;18.72;63.88;99049.97;5081996;28;20052;-76
2022/10/08 05:06:00;;;;;;;12.07;7.70;;;18.70;94.50;;;18.68;63.14;99049.81;5067939;28;20043;-75
2022/10/08 05:08:28;;;;;;;11.75;7.80;;;18.70;94.50;;;18.76;64.00;99056.50;5081210;28;20032;-75
2022/10/08 05:10:54;;;;;;;9.70;7.60;;;18.70;94.60;;;18.76;63.73;99043.56;5083356;28;20422;-75
2022/10/08 05:13:20;;;;;;;10.43;7.35;;;18.70;94.50;;;18.77;62.86;99047.91;5101001;28;20036;-78
2022/10/08 05:15:47;;;;;;;9.10;7.53;;;18.70;94.50;;;18.69;61.63;99048.69;5075249;28;20054;-76
2022/10/08 05:18:13;;;;;;;8.68;6.90;;;18.70;94.20;;;18.52;61.31;99048.66;5068390;28;20512;-78
2022/10/08 05:20:39;;;;;;;8.50;7.25;;;18.60;93.80;;;18.52;61.05;99051.41;5086208;28;20039;-78
2022/10/08 05:23:06;;;;;;;7.82;6.88;;;18.60;93.80;;;18.51;59.96;99055.28;5092065;28;20035;-78
2022/10/08 05:25:33;;;;;;;11.07;8.20;;;18.50;93.40;;;18.56;59.34;99064.19;5095868;28;20560;-78
2022/10/08 05:28:00;;;;;;;9.63;7.22;;;18.60;93.30;;;18.60;58.73;99061.63;5102452;28;20047;-78
2022/10/08 05:30:26;;;;;;;9.18;6.60;;;18.60;93.10;;;18.60;58.29;99056.13;5064970;28;20542;-79
2022/10/08 05:32:52;;;;;;;11.63;7.50;;;18.60;93.10;;;18.56;57.97;99052.38;5082165;28;20071;-75
2022/10/08 05:35:18;;;;;;;13.68;6.97;;;18.60;92.90;;;18.53;57.38;99058.53;5101737;28;20082;-76
2022/10/08 05:37:44;;;;;;;11.30;7.75;;;18.60;92.80;;;18.54;56.63;99063.69;5097325;28;20044;-75
2022/10/08 05:40:10;;;;;;;11.38;7.65;;;18.60;92.50;;;18.55;56.44;99072.75;5082544;28;20455;-75
2022/10/08 05:42:36;;;;;;;8.73;7.82;;;18.50;92.40;;;18.58;56.31;99072.13;5098608;28;20454;-75
2022/10/08 05:45:03;;;;;;;7.75;6.93;;;18.50;92.40;;;18.68;56.64;99082.81;5094874;28;20078;-78
2022/10/08 05:47:29;;;;;;;9.27;6.85;;;18.60;92.80;;;18.64;56.29;99081.81;5065671;28;20428;-78
2022/10/08 05:49:55;;;;;;;9.52;7.68;;;18.60;92.60;;;18.67;56.27;99078.41;5084895;28;20064;-77
2022/10/08 05:52:21;;;;;;;6.90;6.07;;;18.60;92.50;;;18.72;56.41;99082.94;5089137;28;20040;-78
2022/10/08 05:54:47;;;;;;;10.15;7.53;;;18.70;92.70;;;18.73;56.64;99087.34;5087148;28;20432;-78
2022/10/08 05:57:14;;;;;;;9.35;6.90;;;18.60;93.10;;;18.72;56.90;99077.47;5083065;28;20040;-78
2022/10/08 05:59:40;;;;;;;9.32;6.60;;;18.60;92.80;;;18.74;57.11;99083.44;5071900;28;20149;-77
2022/10/08 06:02:06;;;;;;;10.38;7.40;;;18.60;92.90;;;18.70;57.16;99091.53;5066507;28;20514;-78
2022/10/08 06:04:32;;;;;;;8.20;6.65;;;18.60;93.00;;;18.78;57.75;99081.72;5082315;28;20043;-78
2022/10/08 06:06:58;;;;;;;11.43;7.75;;;18.70;93.30;;;18.75;58.26;99085.06;5080732;28;20120;-78
2022/10/08 06:09:24;;;;;;;8.43;7.13;;;18.70;93.30;;;18.76;58.08;99090.28;5068830;28;20036;-78
2022/10/08 06:11:50;;;;;;;13.75;8.15;;;18.70;93.30;;;18.77;57.97;99091.88;5082244;28;20480;-76
2022/10/08 06:14:18;;;;;;;10.52;7.88;;;18.70;93.30;;;18.79;58.11;99097.88;5082557;28;20410;-76
2022/10/08 06:16:43;;;;;;;8.48;7.00;;;18.70;93.30;;;18.81;57.91;99092.88;5082418;28;20075;-75
2022/10/08 06:19:09;;;;;;;10.40;6.70;;;18.70;93.30;;;18.81;58.28;99095.63;5094128;28;20491;-75
2022/10/08 06:21:36;;;;;;;10.35;6.72;;;18.70;93.40;;;18.81;58.56;99087.38;5075330;28;20043;-75
2022/10/08 06:24:05;;;;;;;8.85;6.85;;;18.70;93.60;;;18.84;58.76;99094.97;5085240;28;20096;-75
2022/10/08 06:26:34;;;;;;;10.77;7.35;;;18.70;93.70;;;18.79;58.89;99100.63;5076274;28;20039;-75
2022/10/08 06:29:01;;;;;;;10.32;6.70;;;18.70;93.60;;;18.84;58.82;99102.41;5078737;28;20051;-75
2022/10/08 06:31:27;;;;;;;10.20;6.88;;;18.70;93.50;;;18.84;58.62;99099.66;5093932;28;20039;-75
2022/10/08 06:33:57;;;;;;;9.38;6.50;;;18.80;93.50;;;18.84;58.58;99097.72;5095108;28;20118;-75
2022/10/08 06:36:27;;;;;;;13.35;7.57;;;18.80;93.50;;;18.82;59.45;99099.97;5064035;28;20047;-75
2022/10/08 06:38:57;;;;;;;10.55;7.30;;;18.80;93.80;;;18.81;59.51;99095.63;5067468;28;20042;-75
2022/10/08 06:41:24;;;;;;;17.88;8.52;;;18.80;93.80;;;18.87;59.43;99099.81;5081712;28;20055;-75
2022/10/08 06:43:50;;;;;;;13.38;9.07;;;18.70;93.80;;;18.88;59.07;99103.41;5094055;28;20068;-75
2022/10/08 06:46:16;;;;;;;16.15;8.05;;;18.70;93.60;;;18.87;58.88;99097.06;5082226;28;20444;-75
2022/10/08 06:48:43;;;;;;;14.45;8.10;;;18.80;93.60;;;18.90;58.62;99098.38;5098065;28;20047;-75
2022/10/08 06:51:13;;;;;;;13.18;8.52;;;18.80;93.60;;;18.90;58.77;99097.56;5069200;28;20365;-75
2022/10/08 06:53:40;;;;;;;25.33;12.50;;;18.80;93.60;;;18.90;59.71;99103.06;5085365;28;20048;-75
2022/10/08 06:56:13;;;;;;;24.88;12.48;;;18.80;93.80;;;18.93;59.52;99100.50;5067572;28;20047;-75
2022/10/08 06:58:41;;;;;;;22.23;9.95;;;18.80;93.80;;;18.93;59.44;99102.41;5086611;27;20062;-75
2022/10/08 07:01:16;;;;;;;20.30;10.95;;;18.80;93.70;;;18.94;59.31;99095.81;5093898;28;20051;-75
2022/10/08 07:03:42;;;;;;;17.77;10.80;;;18.80;93.60;;;18.96;59.03;99099.03;5094045;28;20108;-76
2022/10/08 07:06:11;;;;;;;26.38;10.82;;;18.80;93.60;;;18.95;59.00;99094.66;5064144;28;20040;-78
2022/10/08 07:08:37;;;;;;;32.25;14.05;;;18.90;93.60;;;18.96;59.48;99094.34;5099615;28;20101;-78
2022/10/08 07:11:22;;;;;;;36.30;15.57;;;18.90;93.80;;;18.99;59.54;99087.41;5071922;28;20032;-78
2022/10/08 07:13:50;;;;;;;27.77;13.23;;;18.90;93.80;;;18.98;59.54;99085.75;5083266;28;20040;-78
2022/10/08 07:16:19;;;;;;;22.63;12.30;;;18.90;93.80;;;18.99;59.38;99093.69;5052633;28;20044;-78
2022/10/08 07:18:46;;;;;;;23.98;11.90;;;18.90;93.60;;;18.98;59.35;99086.59;5080669;28;20482;-78
2022/10/08 07:21:13;;;;;;;28.08;10.68;;;18.90;93.70;;;19.00;59.24;99078.00;5068473;28;20046;-78
2022/10/08 07:23:39;;;;;;;22.63;10.60;;;18.90;93.60;;;19.01;59.07;99082.38;5066560;28;20040;-78
2022/10/08 07:26:19;;;;;;;26.40;15.27;;;19.00;93.70;;;19.01;59.82;99087.88;5097031;28;20038;-78
2022/10/08 07:29:12;;;;;;;40.70;17.33;;;18.90;93.80;;;19.02;59.57;99087.53;5084275;28;20048;-78
2022/10/08 07:31:38;;;;;;;34.53;13.68;;;19.00;93.80;;;19.04;59.46;99084.50;5066709;28;20043;-78
2022/10/08 07:34:08;;;;;;;33.03;14.45;;;19.00;93.70;;;19.06;59.35;99076.72;5086698;28;20046;-78
2022/10/08 07:36:34;;;;;;;30.65;12.85;;;19.00;93.70;;;19.06;59.34;99079.47;5067257;28;20051;-78
2022/10/08 07:39:12;;;;;;;30.85;14.35;;;19.00;93.70;;;19.06;59.06;99080.28;5064905;28;20042;-78
2022/10/08 07:41:39;;;;;;;39.78;15.60;;;19.00;93.70;;;19.05;59.65;99069.59;5068777;28;20346;-78
2022/10/08 07:44:05;;;;;;;36.30;14.43;;;19.00;93.80;;;19.09;59.66;99070.59;5048220;28;20521;-78
2022/10/08 07:46:33;;;;;;;32.83;13.63;;;19.00;93.80;;;19.09;59.43;99070.59;5063973;28;20047;-78
2022/10/08 07:49:00;;;;;;;23.05;12.27;;;19.10;93.80;;;19.11;59.39;99067.50;5097655;28;20073;-78
2022/10/08 07:51:28;;;;;;;29.15;13.65;;;19.00;93.70;;;19.12;59.05;99069.13;5067607;28;20043;-78
2022/10/08 07:53:54;;;;;;;29.73;13.25;;;19.00;93.60;;;19.12;58.97;99069.94;5066270;28;20124;-78
2022/10/08 07:56:21;;;;;;;27.45;14.65;;;19.10;93.70;;;19.15;59.23;99072.03;5096184;28;20040;-78
2022/10/08 07:58:48;;;;;;;31.20;13.75;;;19.10;93.70;;;19.13;59.70;99068.78;5083910;28;20050;-78
2022/10/08 08:01:17;;;;;;;27.05;12.90;;;19.10;93.80;;;19.14;59.50;99067.66;5102966;28;20039;-78
2022/10/08 08:03:43;;;;;;;20.85;11.73;;;19.10;93.80;;;19.16;59.42;99061.81;5061964;28;20499;-78
2022/10/08 08:06:14;;;;;;;25.23;13.13;;;19.20;93.70;;;19.16;59.08;99065.41;5095934;28;20047;-78
2022/10/08 08:08:42;;;;;;;26.92;13.15;;;19.20;93.70;;;19.20;59.09;99062.81;5083958;28;20395;-79
2022/10/08 08:11:11;;;;;;;29.15;13.77;;;19.20;93.70;;;19.20;59.11;99060.06;5063548;28;20513;-79
2022/10/08 08:13:38;;;;;;;30.95;13.10;;;19.10;93.60;;;19.19;59.11;99059.25;5047749;28;20035;-78
2022/10/08 08:16:10;;;;;;;27.80;13.10;;;19.20;93.70;;;19.23;59.30;99059.41;5066400;28;20104;-75
2022/10/08 08:18:39;;;;;;;30.67;12.60;;;19.20;93.70;;;19.24;59.23;99050.84;5068935;28;20559;-80
2022/10/08 08:21:11;;;;;;;29.80;13.30;;;19.20;94.10;;;19.25;60.82;99057.94;5066441;28;20107;-76
2022/10/08 08:23:39;;;;;;;47.63;19.80;;;19.20;94.10;;;19.32;61.96;99059.41;5082637;28;20554;-76
2022/10/08 08:26:08;;;;;;;83.15;30.45;;;19.30;94.70;;;19.38;66.05;99052.59;5096803;28;20525;-79
2022/10/08 08:28:34;;;;;;;64.78;28.08;;;19.30;95.60;;;19.45;66.76;99052.91;5056446;28;20050;-76
2022/10/08 08:31:19;;;;;;;62.83;23.88;;;19.40;95.80;;;19.44;64.25;99051.31;5069905;28;20483;-77
2022/10/08 08:33:52;;;;;;;58.80;23.90;;;19.40;94.80;;;19.42;63.78;99048.06;5088703;28;20551;-76
2022/10/08 08:36:19;;;;;;;65.45;24.63;;;19.40;94.80;;;19.40;63.17;99045.63;5071229;28;20530;-75
2022/10/08 08:38:45;;;;;;;68.07;22.55;;;19.40;94.70;;;19.37;62.98;99045.50;5052266;28;20052;-75
2022/10/08 08:41:30;;;;;;;50.45;21.83;;;19.40;94.50;;;19.39;62.26;99045.97;5099114;28;20044;-75
2022/10/08 08:44:01;;;;;;;49.55;19.75;;;19.50;94.50;;;19.43;61.98;99049.69;5100629;28;20042;-76
2022/10/08 08:46:30;;;;;;;47.63;21.35;;;19.40;94.40;;;19.45;62.03;99061.16;5084532;28;20118;-77
2022/10/08 08:48:56;;;;;;;60.83;24.00;;;19.40;94.50;;;19.46;61.94;99057.28;5088244;28;20087;-76
2022/10/08 08:51:23;;;;;;;58.05;20.75;;;19.50;94.40;;;19.44;61.82;99054.06;5067116;28;20052;-75
2022/10/08 08:53:48;;;;;;;50.05;20.70;;;19.50;94.40;;;19.45;61.63;99048.22;5051083;28;20088;-76
2022/10/08 08:56:15;;;;;;;45.85;18.92;;;19.50;94.30;;;19.46;61.29;99052.59;5084700;28;20044;-76
2022/10/08 08:58:58;;;;;;;46.00;19.45;;;19.50;94.30;;;19.47;61.24;99047.91;5065875;28;20044;-77
2022/10/08 09:01:35;;;;;;;40.00;18.98;;;19.50;94.20;;;19.52;61.19;99044.97;5090267;28;20051;-76
2022/10/08 09:04:41;;;;;;;49.28;19.58;;;19.50;94.20;;;19.51;61.04;99044.19;5051774;28;20050;-76
2022/10/08 09:07:12;;;;;;;40.00;19.63;;;19.50;94.20;;;19.52;60.23;99042.22;5103264;28;20079;-76
2022/10/08 09:09:42;;;;;;;46.65;17.27;;;19.60;93.90;;;19.53;60.47;99041.88;5071017;28;20523;-76
2022/10/08 09:12:35;;;;;;;37.85;17.30;;;19.60;93.90;;;19.58;59.91;99038.16;5067401;28;20035;-75
2022/10/08 09:15:01;;;;;;;44.83;17.58;;;19.60;93.90;;;19.59;59.78;99038.94;5070774;28;20110;-74
2022/10/08 09:17:37;;;;;;;46.95;18.13;;;19.60;93.90;;;19.62;59.94;99043.81;5081669;28;20069;-74
2022/10/08 09:20:04;;;;;;;42.83;18.73;;;19.60;93.90;;;19.63;59.81;99034.41;5056627;28;20071;-74
2022/10/08 09:22:35;;;;;;;45.38;19.20;;;19.60;93.90;;;19.64;59.74;99031.34;5063577;28;20122;-75
2022/10/08 09:25:13;;;;;;;37.88;16.27;;;19.60;93.90;;;19.66;58.90;99037.31;5048761;28;20044;-76
2022/10/08 09:27:51;;;;;;;34.47;16.02;;;19.70;93.70;;;19.63;59.13;99031.66;5083885;28;20394;-74
2022/10/08 09:30:37;;;;;;;32.63;16.88;;;19.70;93.70;;;19.69;58.78;99033.97;5080215;28;20040;-75
2022/10/08 09:33:15;;;;;;;35.75;14.95;;;19.70;93.60;;;19.73;58.81;99028.59;5092775;28;20064;-76
2022/10/08 09:35:52;;;;;;;36.35;17.75;;;19.70;93.60;;;19.77;58.90;99025.97;5097042;28;20039;-75
2022/10/08 09:38:25;;;;;;;41.67;16.13;;;19.70;93.70;;;19.79;58.81;99031.97;5070179;28;20040;-76
2022/10/08 09:41:03;;;;;;;27.58;14.73;;;19.80;93.70;;;19.80;58.56;99023.41;5087752;28;20494;-76
2022/10/08 09:43:32;;;;;;;36.50;15.13;;;19.80;93.60;;;19.82;58.06;99015.63;5086881;28;20043;-76
2022/10/08 09:45:58;;;;;;;29.90;15.88;;;19.80;93.60;;;19.79;59.18;99015.47;5098541;28;20411;-75
2022/10/08 09:48:29;;;;;;;38.50;15.93;;;19.80;93.90;;;19.78;58.75;99011.91;5069386;28;20050;-77
2022/10/08 09:51:04;;;;;;;29.67;13.68;;;19.80;93.60;;;19.81;58.83;99011.25;5072769;28;20096;-79
2022/10/08 09:53:52;;;;;;;35.10;16.17;;;19.80;93.80;;;19.86;58.84;99005.53;5073530;28;20139;-79
2022/10/08 09:56:27;;;;;;;32.35;15.35;;;19.80;93.70;;;19.86;58.47;99000.03;5056406;28;20094;-78
2022/10/08 09:58:59;;;;;;;24.55;12.88;;;19.90;93.60;;;19.87;58.18;99000.84;5066712;28;20085;-79
2022/10/08 10:01:25;;;;;;;34.70;15.07;;;19.90;93.60;;;19.83;58.43;98994.41;5069666;28;20039;-79
2022/10/08 10:03:54;;;;;;;28.88;12.63;;;19.90;93.60;;;19.90;58.38;99008.47;5063159;28;20079;-78
2022/10/08 10:06:37;;;;;;;30.33;13.55;;;19.90;93.50;;;19.93;58.42;99002.28;5102954;28;20146;-78
2022/10/08 10:09:09;;;;;;;25.40;11.45;;;19.90;93.60;;;19.85;58.05;98998.44;5088161;28;20062;-77
2022/10/08 10:11:42;;;;;;;24.17;13.00;;;19.90;93.40;;;19.89;57.87;99004.09;5098813;28;20505;-76
2022/10/08 10:14:45;;;;;;;38.08;12.50;;;19.90;93.40;;;19.90;58.30;98994.69;5084511;28;20040;-74
2022/10/08 10:17:40;;;;;;;29.63;13.65;;;19.90;93.50;;;19.89;58.22;98995.81;5096553;28;20058;-74
2022/10/08 10:20:25;;;;;;;27.40;12.30;;;20.00;93.50;;;19.89;57.96;98987.56;5081182;28;20554;-75
2022/10/08 10:23:05;;;;;;;28.17;12.00;;;20.00;93.40;;;19.87;58.52;98989.84;5070900;28;20051;-74
2022/10/08 10:25:45;;;;;;;29.27;11.90;;;20.00;93.40;;;19.87;58.33;98984.31;5085226;28;20039;-75